ANA410 RJSK-RJTT
Flight info
| Callsign | ANA410 |
|---|---|
| Flight time | 0h 47m |
| Altitude | 32000 |
| Route | YTE Y32 RUBIS Y10 GODIN |
| Aircraft | B738/M-SDE2E3FGHIRWXY/LB1 |
Departure
| Time | 2026-04-16 12:04 |
|---|---|
| Airport | Akita Airport (RJSK) |
Arrival
| Time | 2026-04-16 12:52 |
|---|---|
| Airport | Tokyo Haneda International Airport (RJTT) |
| Time | Latitude | Longitude | Altitude | Speed | Heading |
|---|---|---|---|---|---|
| 2026-04-16 11:44 | 39.61235 | 140.22066 | 321 ft | 0 kts | 186° |
| 2026-04-16 11:55 | 39.61239 | 140.22067 | 322 ft | 2 kts | 185° |
| 2026-04-16 11:55 | 39.61251 | 140.22067 | 321 ft | 0 kts | 186° |
| 2026-04-16 11:55 | 39.61264 | 140.22069 | 321 ft | 2 kts | 173° |
| 2026-04-16 11:55 | 39.61278 | 140.22064 | 320 ft | 2 kts | 158° |
| 2026-04-16 11:56 | 39.61291 | 140.22055 | 319 ft | 2 kts | 140° |
| 2026-04-16 11:56 | 39.61302 | 140.22041 | 318 ft | 2 kts | 124° |
| 2026-04-16 11:56 | 39.61309 | 140.22025 | 318 ft | 2 kts | 109° |
| 2026-04-16 11:56 | 39.61311 | 140.22012 | 318 ft | 0 kts | 98° |
| 2026-04-16 11:57 | 39.61312 | 140.22005 | 318 ft | 0 kts | 96° |
| 2026-04-16 11:59 | 39.61313 | 140.22029 | 318 ft | 7 kts | 73° |
| 2026-04-16 11:59 | 39.61346 | 140.22124 | 317 ft | 13 kts | 60° |
| 2026-04-16 12:00 | 39.61363 | 140.22243 | 316 ft | 13 kts | 96° |
| 2026-04-16 12:00 | 39.61353 | 140.22363 | 316 ft | 13 kts | 96° |
| 2026-04-16 12:00 | 39.61342 | 140.22479 | 315 ft | 13 kts | 96° |
| 2026-04-16 12:00 | 39.61330 | 140.22610 | 313 ft | 15 kts | 96° |
| 2026-04-16 12:01 | 39.61315 | 140.22772 | 313 ft | 20 kts | 96° |
| 2026-04-16 12:01 | 39.61299 | 140.22960 | 314 ft | 20 kts | 96° |
| 2026-04-16 12:01 | 39.61285 | 140.23120 | 316 ft | 12 kts | 96° |
| 2026-04-16 12:02 | 39.61314 | 140.23282 | 318 ft | 6 kts | 18° |
| 2026-04-16 12:02 | 39.61344 | 140.23288 | 318 ft | 3 kts | 6° |
| 2026-04-16 12:02 | 39.61373 | 140.23291 | 318 ft | 6 kts | 6° |
| 2026-04-16 12:02 | 39.61413 | 140.23297 | 318 ft | 5 kts | 6° |
| 2026-04-16 12:03 | 39.61438 | 140.23263 | 318 ft | 7 kts | 279° |
| 2026-04-16 12:03 | 39.61450 | 140.23140 | 318 ft | 24 kts | 276° |
| 2026-04-16 12:03 | 39.61493 | 140.22646 | 316 ft | 93 kts | 276° |
| 2026-04-16 12:03 | 39.61597 | 140.21507 | 310 ft | 161 kts | 276° |
| 2026-04-16 12:04 | 39.61735 | 140.19952 | 837 ft | 179 kts | 275° |
| 2026-04-16 12:04 | 39.61714 | 140.18268 | 1426 ft | 202 kts | 252° |
| 2026-04-16 12:04 | 39.60954 | 140.16661 | 2024 ft | 221 kts | 217° |
| 2026-04-16 12:04 | 39.59548 | 140.15894 | 2705 ft | 229 kts | 183° |
| 2026-04-16 12:05 | 39.57956 | 140.15982 | 3525 ft | 233 kts | 173° |
| 2026-04-16 12:05 | 39.56319 | 140.16200 | 4268 ft | 241 kts | 172° |
| 2026-04-16 12:05 | 39.54585 | 140.16502 | 4759 ft | 260 kts | 169° |
| 2026-04-16 12:05 | 39.52751 | 140.16899 | 5393 ft | 273 kts | 168° |
| 2026-04-16 12:06 | 39.50886 | 140.17319 | 6178 ft | 279 kts | 168° |
| 2026-04-16 12:06 | 39.48955 | 140.17760 | 6967 ft | 285 kts | 167° |
| 2026-04-16 12:06 | 39.46960 | 140.18222 | 7707 ft | 293 kts | 167° |
| 2026-04-16 12:06 | 39.44940 | 140.18690 | 8450 ft | 300 kts | 167° |
| 2026-04-16 12:07 | 39.42889 | 140.19168 | 9167 ft | 306 kts | 167° |
| 2026-04-16 12:07 | 39.40769 | 140.19658 | 9874 ft | 312 kts | 167° |
| 2026-04-16 12:07 | 39.38616 | 140.20157 | 10485 ft | 323 kts | 167° |
| 2026-04-16 12:07 | 39.36366 | 140.20685 | 10949 ft | 338 kts | 167° |
| 2026-04-16 12:08 | 39.33983 | 140.21257 | 11397 ft | 353 kts | 165° |
| 2026-04-16 12:08 | 39.31603 | 140.22211 | 11815 ft | 366 kts | 155° |
| 2026-04-16 12:08 | 39.29216 | 140.23491 | 12415 ft | 374 kts | 153° |
| 2026-04-16 12:08 | 39.26840 | 140.24831 | 13232 ft | 377 kts | 153° |
| 2026-04-16 12:09 | 39.24430 | 140.26172 | 14047 ft | 380 kts | 154° |
| 2026-04-16 12:09 | 39.21994 | 140.27512 | 14727 ft | 388 kts | 154° |
| 2026-04-16 12:09 | 39.19487 | 140.28879 | 15482 ft | 394 kts | 154° |
| 2026-04-16 12:09 | 39.16944 | 140.30261 | 16205 ft | 400 kts | 155° |
| 2026-04-16 12:10 | 39.14359 | 140.31665 | 16960 ft | 404 kts | 155° |
| 2026-04-16 12:10 | 39.11741 | 140.33037 | 17608 ft | 412 kts | 158° |
| 2026-04-16 12:10 | 39.08990 | 140.34175 | 18292 ft | 419 kts | 165° |
| 2026-04-16 12:10 | 39.06116 | 140.34761 | 19048 ft | 422 kts | 175° |
| 2026-04-16 12:11 | 39.03183 | 140.34949 | 19619 ft | 429 kts | 179° |
| 2026-04-16 12:11 | 39.00162 | 140.34993 | 20267 ft | 433 kts | 181° |
| 2026-04-16 12:11 | 38.97139 | 140.35010 | 20865 ft | 439 kts | 181° |
| 2026-04-16 12:11 | 38.94081 | 140.35034 | 21407 ft | 446 kts | 181° |
| 2026-04-16 12:12 | 38.91048 | 140.35063 | 21956 ft | 451 kts | 181° |
| 2026-04-16 12:12 | 38.87809 | 140.35101 | 22585 ft | 455 kts | 182° |
| 2026-04-16 12:12 | 38.84564 | 140.35141 | 23117 ft | 460 kts | 181° |
| 2026-04-16 12:12 | 38.81370 | 140.35182 | 23611 ft | 466 kts | 182° |
| 2026-04-16 12:13 | 38.78138 | 140.35226 | 24152 ft | 470 kts | 181° |
| 2026-04-16 12:13 | 38.74833 | 140.35272 | 24661 ft | 474 kts | 182° |
| 2026-04-16 12:13 | 38.71532 | 140.35318 | 25217 ft | 477 kts | 181° |
| 2026-04-16 12:13 | 38.68233 | 140.35364 | 25773 ft | 479 kts | 181° |
| 2026-04-16 12:14 | 38.64893 | 140.35410 | 26261 ft | 483 kts | 182° |
| 2026-04-16 12:14 | 38.61491 | 140.35454 | 26646 ft | 489 kts | 182° |
| 2026-04-16 12:14 | 38.58079 | 140.35501 | 27245 ft | 490 kts | 182° |
| 2026-04-16 12:14 | 38.54674 | 140.35551 | 27600 ft | 496 kts | 182° |
| 2026-04-16 12:15 | 38.51205 | 140.35602 | 28116 ft | 498 kts | 181° |
| 2026-04-16 12:15 | 38.47708 | 140.35652 | 28620 ft | 500 kts | 182° |
| 2026-04-16 12:15 | 38.44215 | 140.35721 | 29128 ft | 503 kts | 180° |
| 2026-04-16 12:15 | 38.40753 | 140.36029 | 29771 ft | 502 kts | 175° |
| 2026-04-16 12:16 | 38.37317 | 140.36719 | 30444 ft | 501 kts | 169° |
| 2026-04-16 12:16 | 38.33937 | 140.37860 | 31135 ft | 498 kts | 164° |
| 2026-04-16 12:16 | 38.30664 | 140.39235 | 31738 ft | 496 kts | 162° |
| 2026-04-16 12:16 | 38.27396 | 140.40681 | 32047 ft | 501 kts | 163° |
| 2026-04-16 12:17 | 38.24110 | 140.42142 | 32171 ft | 507 kts | 162° |
| 2026-04-16 12:17 | 38.20754 | 140.43625 | 32166 ft | 506 kts | 163° |
| 2026-04-16 12:17 | 38.14165 | 140.46510 | 32168 ft | 499 kts | 162° |
| 2026-04-16 12:18 | 38.07582 | 140.49364 | 32168 ft | 500 kts | 163° |
| 2026-04-16 12:18 | 38.00962 | 140.52231 | 32173 ft | 503 kts | 163° |
| 2026-04-16 12:19 | 37.94350 | 140.55095 | 32186 ft | 502 kts | 163° |
| 2026-04-16 12:19 | 37.87743 | 140.57953 | 32190 ft | 503 kts | 163° |
| 2026-04-16 12:20 | 37.81061 | 140.60805 | 32190 ft | 504 kts | 165° |
| 2026-04-16 12:20 | 37.74276 | 140.62634 | 32184 ft | 494 kts | 183° |
| 2026-04-16 12:21 | 37.70888 | 140.62294 | 32197 ft | 482 kts | 196° |
| 2026-04-16 12:21 | 37.67603 | 140.61473 | 32191 ft | 481 kts | 199° |
| 2026-04-16 12:21 | 37.61084 | 140.59627 | 32184 ft | 479 kts | 200° |
| 2026-04-16 12:22 | 37.54599 | 140.57745 | 32179 ft | 480 kts | 199° |
| 2026-04-16 12:22 | 37.48106 | 140.55879 | 31922 ft | 484 kts | 199° |
| 2026-04-16 12:23 | 37.44821 | 140.54952 | 31665 ft | 484 kts | 199° |
| 2026-04-16 12:23 | 37.41545 | 140.54039 | 31408 ft | 481 kts | 198° |
| 2026-04-16 12:23 | 37.38259 | 140.53128 | 31146 ft | 482 kts | 199° |
| 2026-04-16 12:23 | 37.34993 | 140.52220 | 30626 ft | 489 kts | 198° |
| 2026-04-16 12:24 | 37.31650 | 140.51294 | 29997 ft | 492 kts | 198° |
| 2026-04-16 12:24 | 37.28281 | 140.50369 | 29342 ft | 490 kts | 197° |
| 2026-04-16 12:24 | 37.24989 | 140.49472 | 28698 ft | 488 kts | 198° |
| 2026-04-16 12:24 | 37.21685 | 140.48573 | 28049 ft | 486 kts | 198° |
| 2026-04-16 12:25 | 37.18363 | 140.47664 | 27397 ft | 488 kts | 197° |
| 2026-04-16 12:25 | 37.15077 | 140.46764 | 26749 ft | 487 kts | 197° |
| 2026-04-16 12:25 | 37.11775 | 140.45863 | 25983 ft | 487 kts | 197° |
| 2026-04-16 12:25 | 37.08451 | 140.44957 | 25211 ft | 487 kts | 196° |
| 2026-04-16 12:26 | 37.05144 | 140.44058 | 24449 ft | 486 kts | 197° |
| 2026-04-16 12:26 | 37.01854 | 140.43166 | 23698 ft | 485 kts | 196° |
| 2026-04-16 12:26 | 36.98552 | 140.42271 | 22958 ft | 484 kts | 196° |
| 2026-04-16 12:26 | 36.95272 | 140.41383 | 22237 ft | 483 kts | 195° |
| 2026-04-16 12:27 | 36.92029 | 140.40506 | 21510 ft | 481 kts | 195° |
| 2026-04-16 12:27 | 36.88769 | 140.39625 | 20771 ft | 479 kts | 195° |
| 2026-04-16 12:27 | 36.85510 | 140.38747 | 20031 ft | 477 kts | 195° |
| 2026-04-16 12:27 | 36.82278 | 140.37869 | 19288 ft | 473 kts | 194° |
| 2026-04-16 12:28 | 36.79040 | 140.36992 | 18545 ft | 470 kts | 193° |
| 2026-04-16 12:28 | 36.75868 | 140.36137 | 17796 ft | 467 kts | 193° |
| 2026-04-16 12:28 | 36.72693 | 140.35288 | 17035 ft | 464 kts | 192° |
| 2026-04-16 12:28 | 36.69546 | 140.34442 | 16406 ft | 457 kts | 192° |
| 2026-04-16 12:29 | 36.66472 | 140.33615 | 16193 ft | 440 kts | 192° |
| 2026-04-16 12:29 | 36.63554 | 140.32829 | 16161 ft | 422 kts | 192° |
| 2026-04-16 12:29 | 36.60713 | 140.32135 | 16170 ft | 412 kts | 189° |
| 2026-04-16 12:29 | 36.57898 | 140.31566 | 16128 ft | 420 kts | 188° |
| 2026-04-16 12:30 | 36.54947 | 140.31010 | 15803 ft | 428 kts | 187° |
| 2026-04-16 12:30 | 36.52029 | 140.30453 | 15429 ft | 421 kts | 187° |
| 2026-04-16 12:30 | 36.49141 | 140.29889 | 15012 ft | 413 kts | 187° |
| 2026-04-16 12:30 | 36.46352 | 140.29340 | 14603 ft | 405 kts | 187° |
| 2026-04-16 12:31 | 36.43583 | 140.28790 | 14176 ft | 398 kts | 187° |
| 2026-04-16 12:31 | 36.40859 | 140.28247 | 13748 ft | 392 kts | 186° |
| 2026-04-16 12:31 | 36.38221 | 140.27721 | 13332 ft | 386 kts | 186° |
| 2026-04-16 12:31 | 36.35575 | 140.27193 | 12899 ft | 380 kts | 186° |
| 2026-04-16 12:32 | 36.32974 | 140.26677 | 12483 ft | 376 kts | 187° |
| 2026-04-16 12:32 | 36.30425 | 140.26170 | 12069 ft | 373 kts | 187° |
| 2026-04-16 12:32 | 36.27851 | 140.25658 | 11642 ft | 370 kts | 186° |
| 2026-04-16 12:32 | 36.25297 | 140.25151 | 11223 ft | 370 kts | 187° |
| 2026-04-16 12:33 | 36.22805 | 140.24654 | 10992 ft | 362 kts | 186° |
| 2026-04-16 12:33 | 36.20317 | 140.24159 | 10976 ft | 359 kts | 187° |
| 2026-04-16 12:33 | 36.17823 | 140.23665 | 10979 ft | 367 kts | 186° |
| 2026-04-16 12:33 | 36.15296 | 140.23166 | 10973 ft | 370 kts | 186° |
| 2026-04-16 12:34 | 36.12751 | 140.22661 | 10971 ft | 368 kts | 187° |
| 2026-04-16 12:34 | 36.10207 | 140.22157 | 10974 ft | 368 kts | 187° |
| 2026-04-16 12:34 | 36.07662 | 140.21652 | 10975 ft | 367 kts | 186° |
| 2026-04-16 12:34 | 36.05132 | 140.21150 | 10973 ft | 369 kts | 186° |
| 2026-04-16 12:35 | 36.02624 | 140.20668 | 10964 ft | 368 kts | 184° |
| 2026-04-16 12:35 | 36.00059 | 140.20444 | 10962 ft | 365 kts | 178° |
| 2026-04-16 12:35 | 35.97510 | 140.20354 | 10976 ft | 367 kts | 180° |
| 2026-04-16 12:35 | 35.94961 | 140.20047 | 10970 ft | 368 kts | 184° |
| 2026-04-16 12:36 | 35.92411 | 140.19629 | 10971 ft | 370 kts | 185° |
| 2026-04-16 12:36 | 35.89851 | 140.19206 | 10979 ft | 370 kts | 185° |
| 2026-04-16 12:36 | 35.87303 | 140.18805 | 10975 ft | 368 kts | 184° |
| 2026-04-16 12:36 | 35.84752 | 140.18416 | 10975 ft | 370 kts | 184° |
| 2026-04-16 12:37 | 35.82198 | 140.18034 | 10975 ft | 370 kts | 184° |
| 2026-04-16 12:37 | 35.79635 | 140.17650 | 10974 ft | 368 kts | 184° |
| 2026-04-16 12:37 | 35.77084 | 140.17274 | 10959 ft | 366 kts | 184° |
| 2026-04-16 12:37 | 35.74633 | 140.16911 | 10938 ft | 343 kts | 184° |
| 2026-04-16 12:38 | 35.72316 | 140.16566 | 10962 ft | 325 kts | 183° |
| 2026-04-16 12:38 | 35.70095 | 140.16242 | 10799 ft | 324 kts | 183° |
| 2026-04-16 12:38 | 35.67835 | 140.15916 | 10554 ft | 329 kts | 184° |
| 2026-04-16 12:38 | 35.65557 | 140.15587 | 10177 ft | 331 kts | 183° |
| 2026-04-16 12:39 | 35.63266 | 140.15256 | 9801 ft | 328 kts | 184° |
| 2026-04-16 12:39 | 35.61011 | 140.14928 | 9466 ft | 324 kts | 183° |
| 2026-04-16 12:39 | 35.58779 | 140.14740 | 9126 ft | 317 kts | 171° |
| 2026-04-16 12:39 | 35.56698 | 140.15424 | 8802 ft | 303 kts | 144° |
| 2026-04-16 12:40 | 35.55034 | 140.16855 | 8512 ft | 292 kts | 133° |
| 2026-04-16 12:40 | 35.53363 | 140.18333 | 8167 ft | 301 kts | 147° |
| 2026-04-16 12:40 | 35.51334 | 140.19019 | 7746 ft | 311 kts | 174° |
| 2026-04-16 12:40 | 35.49160 | 140.18723 | 7339 ft | 313 kts | 191° |
| 2026-04-16 12:41 | 35.47041 | 140.18112 | 6913 ft | 313 kts | 192° |
| 2026-04-16 12:41 | 35.44928 | 140.17496 | 6475 ft | 312 kts | 192° |
| 2026-04-16 12:41 | 35.42835 | 140.16895 | 6092 ft | 303 kts | 192° |
| 2026-04-16 12:41 | 35.40839 | 140.16313 | 5773 ft | 293 kts | 196° |
| 2026-04-16 12:42 | 35.38973 | 140.15401 | 5488 ft | 287 kts | 207° |
| 2026-04-16 12:42 | 35.37175 | 140.14298 | 5145 ft | 286 kts | 206° |
| 2026-04-16 12:42 | 35.35366 | 140.13284 | 4814 ft | 285 kts | 204° |
| 2026-04-16 12:42 | 35.33542 | 140.12343 | 4481 ft | 284 kts | 202° |
| 2026-04-16 12:43 | 35.31720 | 140.11435 | 4152 ft | 283 kts | 202° |
| 2026-04-16 12:43 | 35.29967 | 140.10390 | 3947 ft | 272 kts | 219° |
| 2026-04-16 12:43 | 35.28760 | 140.08769 | 3948 ft | 251 kts | 245° |
| 2026-04-16 12:43 | 35.27916 | 140.06923 | 3952 ft | 247 kts | 246° |
| 2026-04-16 12:44 | 35.27104 | 140.05057 | 3948 ft | 248 kts | 255° |
| 2026-04-16 12:44 | 35.26878 | 140.03073 | 3942 ft | 229 kts | 289° |
| 2026-04-16 12:44 | 35.27424 | 140.01321 | 3964 ft | 215 kts | 308° |
| 2026-04-16 12:44 | 35.28152 | 139.99770 | 3933 ft | 210 kts | 309° |
| 2026-04-16 12:45 | 35.28955 | 139.98280 | 3942 ft | 207 kts | 322° |
| 2026-04-16 12:45 | 35.30123 | 139.97336 | 3967 ft | 198 kts | 342° |
| 2026-04-16 12:45 | 35.31356 | 139.96594 | 3937 ft | 200 kts | 338° |
| 2026-04-16 12:45 | 35.32573 | 139.95740 | 3938 ft | 197 kts | 336° |
| 2026-04-16 12:46 | 35.33695 | 139.94928 | 3944 ft | 199 kts | 337° |
| 2026-04-16 12:46 | 35.34893 | 139.94060 | 3946 ft | 199 kts | 336° |
| 2026-04-16 12:46 | 35.36079 | 139.93196 | 3944 ft | 200 kts | 336° |
| 2026-04-16 12:46 | 35.37252 | 139.92329 | 3899 ft | 190 kts | 336° |
| 2026-04-16 12:47 | 35.38361 | 139.91522 | 3716 ft | 186 kts | 336° |
| 2026-04-16 12:47 | 35.39470 | 139.90730 | 3472 ft | 182 kts | 338° |
| 2026-04-16 12:47 | 35.40567 | 139.89952 | 3214 ft | 175 kts | 338° |
| 2026-04-16 12:47 | 35.41599 | 139.89224 | 2936 ft | 172 kts | 338° |
| 2026-04-16 12:48 | 35.42623 | 139.88506 | 2741 ft | 166 kts | 338° |
| 2026-04-16 12:48 | 35.43628 | 139.87799 | 2479 ft | 165 kts | 339° |
| 2026-04-16 12:48 | 35.44588 | 139.87117 | 2233 ft | 154 kts | 340° |
| 2026-04-16 12:48 | 35.45477 | 139.86496 | 2056 ft | 147 kts | 340° |
| 2026-04-16 12:49 | 35.46363 | 139.85872 | 1857 ft | 145 kts | 340° |
| 2026-04-16 12:49 | 35.47246 | 139.85248 | 1643 ft | 145 kts | 339° |
| 2026-04-16 12:49 | 35.48094 | 139.84645 | 1430 ft | 135 kts | 340° |
| 2026-04-16 12:49 | 35.48863 | 139.84105 | 1292 ft | 126 kts | 341° |
| 2026-04-16 12:50 | 35.49638 | 139.83562 | 1116 ft | 129 kts | 340° |
| 2026-04-16 12:50 | 35.50438 | 139.83002 | 927 ft | 131 kts | 339° |
| 2026-04-16 12:50 | 35.51224 | 139.82445 | 749 ft | 131 kts | 339° |
| 2026-04-16 12:50 | 35.52012 | 139.81873 | 598 ft | 132 kts | 337° |
| 2026-04-16 12:51 | 35.52815 | 139.81296 | 414 ft | 132 kts | 339° |
| 2026-04-16 12:51 | 35.53605 | 139.80756 | 229 ft | 130 kts | 340° |
| 2026-04-16 12:51 | 35.54408 | 139.80199 | 57 ft | 133 kts | 338° |
| 2026-04-16 12:51 | 35.55151 | 139.79677 | 29 ft | 93 kts | 330° |
| 2026-04-16 12:52 | 35.55371 | 139.79503 | 29 ft | 16 kts | 318° |
| 2026-04-16 12:52 | 35.55445 | 139.79407 | 29 ft | 14 kts | 307° |
| 2026-04-16 12:52 | 35.55489 | 139.79327 | 29 ft | 9 kts | 301° |
| 2026-04-16 12:52 | 35.55517 | 139.79266 | 29 ft | 7 kts | 297° |
| 2026-04-16 12:53 | 35.55526 | 139.79207 | 29 ft | 7 kts | 255° |
| 2026-04-16 12:53 | 35.55490 | 139.79128 | 29 ft | 11 kts | 240° |
| 2026-04-16 12:53 | 35.55450 | 139.79042 | 29 ft | 11 kts | 240° |
| 2026-04-16 12:53 | 35.55407 | 139.78954 | 29 ft | 11 kts | 230° |
| 2026-04-16 12:54 | 35.55336 | 139.78938 | 29 ft | 11 kts | 153° |
| 2026-04-16 12:54 | 35.55284 | 139.78909 | 29 ft | 9 kts | 238° |
| 2026-04-16 12:54 | 35.55267 | 139.78874 | 29 ft | 0 kts | 240° |